Time;durP1;ratioP1;P1;durP2;ratioP2;P2;SDS_P1;SDS_P2;PMS_P1;PMS_P2;Temp;Humidity;BMP_temperature;BMP_pressure;BME280_temperature;BME280_humidity;BME280_pressure;Samples;Min_cycle;Max_cycle;Signal;HPM_P1;HPM_P2
2022/04/19 00:01:34;;;;;;;7.13;3.60;;;;;;;;;;5060298;28;20221;-83
2022/04/19 00:04:01;;;;;;;6.30;3.33;;;;;;;;;;5058939;28;20214;-83
2022/04/19 00:06:31;;;;;;;6.03;3.30;;;;;;;;;;5057542;28;20242;-84
2022/04/19 00:08:59;;;;;;;7.10;3.60;;;;;;;;;;5056007;28;20207;-84
2022/04/19 00:11:27;;;;;;;8.70;3.30;;;;;;;;;;5057347;28;20241;-83
2022/04/19 00:13:54;;;;;;;7.80;3.67;;;;;;;;;;5057381;28;20197;-83
2022/04/19 00:16:22;;;;;;;6.67;3.43;;;;;;;;;;5055791;28;20529;-83
2022/04/19 00:18:50;;;;;;;8.87;3.47;;;;;;;;;;5056095;28;20207;-83
2022/04/19 00:21:18;;;;;;;10.40;4.03;;;;;;;;;;5059660;28;20262;-83
2022/04/19 00:23:46;;;;;;;8.33;4.00;;;;;;;;;;5065558;28;20194;-84
2022/04/19 00:26:13;;;;;;;7.80;3.80;;;;;;;;;;5058681;28;20234;-83
2022/04/19 00:28:41;;;;;;;8.90;4.03;;;;;;;;;;5056915;28;20226;-83
2022/04/19 00:31:09;;;;;;;8.67;3.50;;;;;;;;;;5061791;28;20231;-83
2022/04/19 00:33:44;;;;;;;10.67;3.90;;;;;;;;;;5056898;28;20262;-83
2022/04/19 00:36:13;;;;;;;7.03;3.67;;;;;;;;;;5056743;28;20227;-84
2022/04/19 00:38:40;;;;;;;6.90;3.67;;;;;;;;;;5054559;28;20203;-83
2022/04/19 00:41:08;;;;;;;7.90;4.33;;;;;;;;;;5055514;28;20214;-83
2022/04/19 00:43:35;;;;;;;6.37;3.60;;;;;;;;;;5055603;28;20233;-83
2022/04/19 00:46:02;;;;;;;10.53;4.07;;;;;;;;;;5052621;28;20230;-83
2022/04/19 00:48:29;;;;;;;7.83;3.30;;;;;;;;;;5055049;28;20206;-82
2022/04/19 00:50:57;;;;;;;9.83;4.10;;;;;;;;;;5051226;28;20214;-82
2022/04/19 00:53:29;;;;;;;7.33;3.47;;;;;;;;;;5061491;28;20211;-83
2022/04/19 00:55:56;;;;;;;8.07;4.10;;;;;;;;;;5057899;28;20277;-83
2022/04/19 00:58:24;;;;;;;7.60;3.43;;;;;;;;;;5063100;28;20207;-84
2022/04/19 01:00:51;;;;;;;7.23;3.27;;;;;;;;;;5063825;28;20199;-83
2022/04/19 01:03:21;;;;;;;6.80;3.43;;;;;;;;;;5062341;28;21022;-84
2022/04/19 01:05:53;;;;;;;6.43;3.23;;;;;;;;;;5060064;28;20214;-83
2022/04/19 01:08:20;;;;;;;9.73;3.87;;;;;;;;;;5059716;28;20238;-82
2022/04/19 01:10:50;;;;;;;7.67;3.67;;;;;;;;;;5061681;28;20207;-84
2022/04/19 01:13:19;;;;;;;7.20;3.80;;;;;;;;;;5058620;28;20277;-83
2022/04/19 01:15:47;;;;;;;7.17;3.53;;;;;;;;;;5048788;28;20206;-83
2022/04/19 01:18:15;;;;;;;7.00;3.67;;;;;;;;;;5055718;28;20753;-83
2022/04/19 01:20:42;;;;;;;7.73;3.40;;;;;;;;;;5060085;28;20203;-82
2022/04/19 01:23:11;;;;;;;7.73;3.40;;;;;;;;;;5053846;28;20724;-83
2022/04/19 01:25:38;;;;;;;8.00;4.20;;;;;;;;;;5050293;28;20292;-82
2022/04/19 01:28:06;;;;;;;9.53;3.67;;;;;;;;;;5054484;28;21419;-83
2022/04/19 01:33:15;;;;;;;6.27;3.07;;;;;;;;;;5035445;28;20290;-83
2022/04/19 01:35:42;;;;;;;8.90;3.50;;;;;;;;;;5050176;28;20195;-83
2022/04/19 01:38:11;;;;;;;7.53;3.30;;;;;;;;;;5053022;28;20215;-83
2022/04/19 01:40:38;;;;;;;7.57;3.27;;;;;;;;;;5050209;28;20217;-83
2022/04/19 01:43:06;;;;;;;6.23;3.10;;;;;;;;;;5053781;28;20199;-83
2022/04/19 01:45:37;;;;;;;5.83;3.20;;;;;;;;;;5050481;28;20267;-83
2022/04/19 01:48:06;;;;;;;6.47;3.40;;;;;;;;;;5047488;28;20282;-83
2022/04/19 01:50:34;;;;;;;6.70;3.13;;;;;;;;;;5052086;28;20281;-83
2022/04/19 01:53:02;;;;;;;8.37;3.07;;;;;;;;;;5057048;28;20261;-82
2022/04/19 01:55:30;;;;;;;6.00;3.13;;;;;;;;;;5053318;28;20289;-82
2022/04/19 01:57:58;;;;;;;8.13;3.90;;;;;;;;;;5051881;28;20286;-82
2022/04/19 02:00:29;;;;;;;9.07;3.57;;;;;;;;;;5055305;28;20652;-82
2022/04/19 02:02:57;;;;;;;6.70;3.23;;;;;;;;;;5049978;28;20286;-83
2022/04/19 02:05:24;;;;;;;9.47;3.50;;;;;;;;;;5052649;28;20214;-82
2022/04/19 02:07:52;;;;;;;6.40;2.73;;;;;;;;;;5048929;28;20238;-83
2022/04/19 02:10:20;;;;;;;5.93;2.87;;;;;;;;;;5050692;28;20824;-82
2022/04/19 02:12:49;;;;;;;7.30;3.27;;;;;;;;;;5049591;28;20246;-83
2022/04/19 02:15:17;;;;;;;6.90;3.30;;;;;;;;;;5051827;28;20299;-83
2022/04/19 02:17:45;;;;;;;7.73;3.10;;;;;;;;;;5050345;28;20308;-82
2022/04/19 02:20:17;;;;;;;7.83;3.10;;;;;;;;;;5051178;28;20577;-82
2022/04/19 02:22:47;;;;;;;7.93;3.27;;;;;;;;;;5045363;28;20200;-80
2022/04/19 02:25:15;;;;;;;6.87;3.53;;;;;;;;;;5049099;28;20274;-82
2022/04/19 02:27:42;;;;;;;6.27;2.97;;;;;;;;;;5052011;28;20236;-82
2022/04/19 02:30:14;;;;;;;5.83;3.20;;;;;;;;;;5049571;28;20309;-82
2022/04/19 02:32:42;;;;;;;6.47;3.23;;;;;;;;;;5054178;28;20311;-82
2022/04/19 02:35:10;;;;;;;7.63;3.53;;;;;;;;;;5049334;28;20199;-82
2022/04/19 02:37:38;;;;;;;6.27;2.93;;;;;;;;;;5046562;28;20230;-82
2022/04/19 02:40:06;;;;;;;6.33;3.10;;;;;;;;;;5046040;28;20206;-82
2022/04/19 02:42:34;;;;;;;5.47;2.97;;;;;;;;;;5046073;28;20278;-82
2022/04/19 02:45:03;;;;;;;6.80;3.20;;;;;;;;;;5049628;28;20203;-82
2022/04/19 02:47:32;;;;;;;11.93;3.33;;;;;;;;;;5049780;28;20792;-82
2022/04/19 02:50:01;;;;;;;7.30;3.30;;;;;;;;;;5046919;28;20195;-81
2022/04/19 02:52:28;;;;;;;7.17;3.50;;;;;;;;;;5053166;28;20223;-82
2022/04/19 02:54:55;;;;;;;8.17;3.10;;;;;;;;;;5052830;28;20541;-82
2022/04/19 02:57:22;;;;;;;8.60;3.47;;;;;;;;;;5050184;28;21054;-81
2022/04/19 02:59:50;;;;;;;5.77;3.10;;;;;;;;;;5057057;28;20462;-82
2022/04/19 03:02:18;;;;;;;5.63;3.27;;;;;;;;;;5052651;28;20214;-82
2022/04/19 03:04:46;;;;;;;6.80;3.63;;;;;;;;;;5049768;28;20214;-82
2022/04/19 03:07:14;;;;;;;8.30;3.67;;;;;;;;;;5048091;28;20485;-82
2022/04/19 03:09:42;;;;;;;8.40;3.10;;;;;;;;;;5050118;28;20199;-83
2022/04/19 03:12:10;;;;;;;6.17;3.13;;;;;;;;;;5048411;28;20487;-82
2022/04/19 03:14:38;;;;;;;11.83;3.10;;;;;;;;;;5048375;28;20203;-82
2022/04/19 03:17:07;;;;;;;5.47;3.17;;;;;;;;;;5047867;28;20265;-83
2022/04/19 03:19:34;;;;;;;5.77;3.20;;;;;;;;;;5047951;28;20593;-83
2022/04/19 03:22:03;;;;;;;6.20;3.47;;;;;;;;;;5045810;28;20458;-83
2022/04/19 03:30:08;;;;;;;10.23;3.50;;;;;;;;;;5049538;28;20198;-83
2022/04/19 03:32:36;;;;;;;5.60;3.17;;;;;;;;;;5049884;28;20215;-83
2022/04/19 03:35:03;;;;;;;5.57;3.30;;;;;;;;;;5041031;28;20218;-82
2022/04/19 03:37:33;;;;;;;9.17;3.40;;;;;;;;;;5046844;28;20230;-83
2022/04/19 03:40:00;;;;;;;6.30;3.63;;;;;;;;;;5048514;28;20469;-83
2022/04/19 03:42:27;;;;;;;7.30;3.50;;;;;;;;;;5050220;28;20507;-83
2022/04/19 03:44:54;;;;;;;7.33;3.53;;;;;;;;;;5049156;28;20557;-83
2022/04/19 03:47:21;;;;;;;8.80;3.67;;;;;;;;;;5051649;28;20481;-83
2022/04/19 03:49:48;;;;;;;6.27;3.03;;;;;;;;;;5047725;28;20465;-83
2022/04/19 03:52:16;;;;;;;7.20;2.93;;;;;;;;;;5047044;28;20669;-83
2022/04/19 03:54:44;;;;;;;17.40;3.77;;;;;;;;;;5047274;28;20223;-83
2022/04/19 03:57:12;;;;;;;6.83;3.20;;;;;;;;;;5050070;28;20227;-83
2022/04/19 03:59:41;;;;;;;6.77;3.50;;;;;;;;;;5044133;28;20521;-83
2022/04/19 04:02:09;;;;;;;6.23;3.30;;;;;;;;;;5045404;28;20536;-84
2022/04/19 04:04:36;;;;;;;4.73;2.90;;;;;;;;;;5048587;28;20878;-84
2022/04/19 04:07:04;;;;;;;5.80;3.27;;;;;;;;;;5053615;28;20503;-83
2022/04/19 04:09:32;;;;;;;8.60;3.40;;;;;;;;;;5047271;28;20234;-83
2022/04/19 04:12:02;;;;;;;6.27;3.00;;;;;;;;;;5048710;28;20466;-84
2022/04/19 04:14:30;;;;;;;6.57;3.50;;;;;;;;;;5048936;28;20840;-83
2022/04/19 04:16:57;;;;;;;6.70;3.43;;;;;;;;;;5049331;28;20223;-83
2022/04/19 04:19:24;;;;;;;6.67;3.03;;;;;;;;;;5044988;28;20462;-83
2022/04/19 04:21:51;;;;;;;8.40;3.57;;;;;;;;;;5045288;28;20538;-83
2022/04/19 04:24:19;;;;;;;6.47;3.30;;;;;;;;;;5055804;28;20450;-82
2022/04/19 04:26:46;;;;;;;8.67;3.57;;;;;;;;;;5066301;28;20503;-82
2022/04/19 04:29:15;;;;;;;9.13;3.50;;;;;;;;;;5052954;28;20449;-83
2022/04/19 04:31:42;;;;;;;10.33;3.47;;;;;;;;;;5046630;28;20873;-83
2022/04/19 04:34:09;;;;;;;6.47;3.50;;;;;;;;;;5051287;28;20313;-83
2022/04/19 04:36:37;;;;;;;7.63;3.50;;;;;;;;;;5047838;28;21024;-83
2022/04/19 04:39:04;;;;;;;7.50;3.30;;;;;;;;;;5052837;28;20584;-83
2022/04/19 04:41:31;;;;;;;7.00;2.80;;;;;;;;;;5051820;28;20215;-84
2022/04/19 04:43:59;;;;;;;7.83;3.07;;;;;;;;;;5051505;28;20239;-84
2022/04/19 04:51:57;;;;;;;8.40;3.50;;;;;;;;;;5049294;28;20206;-84
2022/04/19 04:54:24;;;;;;;7.73;3.93;;;;;;;;;;5047053;28;20620;-83
2022/04/19 04:56:52;;;;;;;7.27;3.57;;;;;;;;;;5044941;28;20477;-84
2022/04/19 04:59:19;;;;;;;10.20;3.27;;;;;;;;;;5048137;28;20202;-84
2022/04/19 05:01:48;;;;;;;7.40;3.40;;;;;;;;;;5043502;28;20242;-84
2022/04/19 05:04:15;;;;;;;6.20;2.87;;;;;;;;;;5046725;28;20702;-83
2022/04/19 05:06:42;;;;;;;9.37;3.43;;;;;;;;;;5055093;22;20320;-76
2022/04/19 05:09:09;;;;;;;7.40;3.20;;;;;;;;;;5040221;28;20364;-76
2022/04/19 05:11:36;;;;;;;11.77;3.80;;;;;;;;;;5036485;28;20220;-75
2022/04/19 05:14:03;;;;;;;13.73;3.70;;;;;;;;;;5034791;28;20248;-76
2022/04/19 05:16:45;;;;;;;5.87;3.00;;;;;;;;;;5036290;28;20235;-77
2022/04/19 05:19:14;;;;;;;6.20;3.00;;;;;;;;;;5037196;28;20559;-76
2022/04/19 05:21:41;;;;;;;7.50;2.60;;;;;;;;;;5041662;28;20693;-75
2022/04/19 05:24:09;;;;;;;6.40;2.80;;;;;;;;;;5038589;28;20200;-76
2022/04/19 05:26:36;;;;;;;4.07;2.50;;;;;;;;;;5035072;28;20207;-77
2022/04/19 05:29:04;;;;;;;6.73;3.10;;;;;;;;;;5033064;28;20253;-78
2022/04/19 05:31:31;;;;;;;5.27;3.40;;;;;;;;;;5033818;28;20253;-77
2022/04/19 05:33:58;;;;;;;6.10;3.03;;;;;;;;;;5028375;28;20226;-76
2022/04/19 05:36:27;;;;;;;8.77;3.03;;;;;;;;;;5030218;28;20207;-77
2022/04/19 05:38:54;;;;;;;4.33;2.93;;;;;;;;;;5029252;28;20204;-76
2022/04/19 05:41:21;;;;;;;6.47;2.90;;;;;;;;;;5029413;28;20318;-77
2022/04/19 05:43:49;;;;;;;4.50;3.00;;;;;;;;;;5034788;28;20202;-78
2022/04/19 05:46:17;;;;;;;5.73;3.10;;;;;;;;;;5027549;28;20211;-77
2022/04/19 05:48:44;;;;;;;6.30;3.10;;;;;;;;;;5030328;28;20459;-75
2022/04/19 05:51:11;;;;;;;5.27;3.33;;;;;;;;;;5028235;28;20230;-75
2022/04/19 05:53:40;;;;;;;5.10;3.33;;;;;;;;;;5035984;28;20215;-76
2022/04/19 05:56:07;;;;;;;10.27;3.40;;;;;;;;;;5041779;28;20210;-76
2022/04/19 05:58:35;;;;;;;7.90;3.37;;;;;;;;;;5042257;28;20655;-77
2022/04/19 06:01:02;;;;;;;6.10;3.10;;;;;;;;;;5033805;28;20254;-77
2022/04/19 06:06:15;;;;;;;7.03;3.03;;;;;;;;;;5034764;28;20215;-77
2022/04/19 06:08:44;;;;;;;5.83;3.00;;;;;;;;;;5036739;28;20196;-77
2022/04/19 06:11:12;;;;;;;3.77;2.97;;;;;;;;;;5036235;28;20227;-76
2022/04/19 06:13:40;;;;;;;5.67;2.67;;;;;;;;;;5042480;28;20309;-77
2022/04/19 06:16:10;;;;;;;5.47;3.00;;;;;;;;;;5047079;28;20238;-76
2022/04/19 06:18:37;;;;;;;6.67;2.30;;;;;;;;;;5033369;28;20577;-75
2022/04/19 06:21:05;;;;;;;6.33;3.07;;;;;;;;;;5033218;28;20571;-76
2022/04/19 06:23:32;;;;;;;4.90;3.00;;;;;;;;;;5034160;28;20207;-76
2022/04/19 06:26:01;;;;;;;5.20;2.80;;;;;;;;;;5036779;28;20198;-76
2022/04/19 06:28:28;;;;;;;7.27;3.30;;;;;;;;;;5033311;28;20199;-76
2022/04/19 06:30:55;;;;;;;5.40;3.53;;;;;;;;;;5036925;28;20234;-76
2022/04/19 06:33:22;;;;;;;5.33;3.40;;;;;;;;;;5032707;28;20219;-76
2022/04/19 06:35:50;;;;;;;7.83;3.13;;;;;;;;;;5033508;28;20203;-76
2022/04/19 06:38:17;;;;;;;6.13;2.97;;;;;;;;;;5034182;28;20203;-76
2022/04/19 06:40:44;;;;;;;5.93;3.20;;;;;;;;;;5032527;28;20219;-76
2022/04/19 06:43:13;;;;;;;4.77;2.80;;;;;;;;;;5041704;28;20660;-77
2022/04/19 06:45:40;;;;;;;5.93;2.23;;;;;;;;;;5037517;28;20198;-76
2022/04/19 06:48:07;;;;;;;8.33;3.20;;;;;;;;;;5039663;28;20214;-76
2022/04/19 06:50:34;;;;;;;9.10;2.90;;;;;;;;;;5037590;28;20308;-76
2022/04/19 06:53:01;;;;;;;10.27;2.80;;;;;;;;;;5028765;28;20221;-77
2022/04/19 06:55:29;;;;;;;5.33;2.50;;;;;;;;;;5033323;28;20645;-77
2022/04/19 06:57:56;;;;;;;6.47;2.53;;;;;;;;;;5033743;28;20202;-77
2022/04/19 07:00:24;;;;;;;4.87;2.30;;;;;;;;;;5032984;28;20595;-76
2022/04/19 07:02:51;;;;;;;6.63;2.63;;;;;;;;;;5034347;28;20210;-76
2022/04/19 07:05:19;;;;;;;6.83;2.77;;;;;;;;;;5035651;28;20210;-77
2022/04/19 07:07:46;;;;;;;5.47;2.70;;;;;;;;;;5033942;28;20207;-78
2022/04/19 07:10:13;;;;;;;5.23;2.53;;;;;;;;;;5032494;28;20233;-77
2022/04/19 07:12:41;;;;;;;4.13;3.00;;;;;;;;;;5035522;28;20200;-77
2022/04/19 07:15:09;;;;;;;7.60;2.73;;;;;;;;;;5033098;28;20638;-77
2022/04/19 07:17:43;;;;;;;4.53;2.80;;;;;;;;;;5033501;28;20250;-77
2022/04/19 07:28:24;;;;;;;3.97;2.67;;;;;;;;;;5036512;28;20313;-77
2022/04/19 07:30:52;;;;;;;8.47;2.80;;;;;;;;;;5040255;28;20606;-78
2022/04/19 07:33:20;;;;;;;7.23;2.83;;;;;;;;;;5040011;28;20624;-79
2022/04/19 07:35:48;;;;;;;4.97;3.17;;;;;;;;;;5033175;28;20749;-78
2022/04/19 07:38:15;;;;;;;4.13;2.90;;;;;;;;;;5030934;28;20293;-75
2022/04/19 07:40:44;;;;;;;5.50;3.20;;;;;;;;;;5039378;28;20307;-77
2022/04/19 07:43:11;;;;;;;5.07;2.77;;;;;;;;;;5035248;28;20204;-77
2022/04/19 07:45:38;;;;;;;8.07;3.17;;;;;;;;;;5038365;28;20211;-76
2022/04/19 07:48:06;;;;;;;6.27;3.40;;;;;;;;;;5038844;28;20287;-76
2022/04/19 07:50:35;;;;;;;6.17;3.33;;;;;;;;;;5036731;28;20429;-77
2022/04/19 07:53:02;;;;;;;7.33;3.37;;;;;;;;;;5041043;28;20302;-78
2022/04/19 07:55:30;;;;;;;9.13;3.90;;;;;;;;;;5043637;28;20838;-78
2022/04/19 07:57:57;;;;;;;4.10;3.17;;;;;;;;;;5037569;28;20199;-76
2022/04/19 08:00:27;;;;;;;5.83;3.70;;;;;;;;;;5041868;28;20231;-76
2022/04/19 08:02:55;;;;;;;5.53;3.90;;;;;;;;;;5030407;28;20206;-79
2022/04/19 08:05:22;;;;;;;5.77;3.87;;;;;;;;;;5034780;28;20203;-77
2022/04/19 08:07:50;;;;;;;6.30;3.37;;;;;;;;;;5035363;28;20213;-77
2022/04/19 08:10:18;;;;;;;6.50;3.47;;;;;;;;;;5030150;28;20220;-77
2022/04/19 08:34:12;;;;;;;6.93;4.20;;;;;;;;;;5028294;28;20241;-77
2022/04/19 08:36:42;;;;;;;6.77;4.03;;;;;;;;;;5025611;28;20213;-77
2022/04/19 08:39:10;;;;;;;5.90;3.93;;;;;;;;;;5035340;28;20205;-76
2022/04/19 08:41:37;;;;;;;8.13;4.20;;;;;;;;;;4982645;28;20523;-76
2022/04/19 08:44:05;;;;;;;6.47;4.40;;;;;;;;;;4975331;28;20602;-76
2022/04/19 08:46:33;;;;;;;6.73;4.07;;;;;;;;;;4978622;28;20720;-77
2022/04/19 08:49:03;;;;;;;7.10;4.27;;;;;;;;;;4977032;28;20221;-75
2022/04/19 08:51:32;;;;;;;8.07;4.30;;;;;;;;;;4971566;28;20217;-77
2022/04/19 08:59:29;;;;;;;7.80;4.27;;;;;;;;;;4980065;28;20337;-77
2022/04/19 09:01:56;;;;;;;9.27;5.13;;;;;;;;;;4975937;28;20228;-78
2022/04/19 09:04:24;;;;;;;6.40;4.37;;;;;;;;;;4982869;28;20282;-78
2022/04/19 09:06:53;;;;;;;7.60;4.60;;;;;;;;;;4981736;28;20209;-76
2022/04/19 09:09:23;;;;;;;9.20;4.63;;;;;;;;;;4976572;28;20288;-77
2022/04/19 09:11:50;;;;;;;8.77;4.13;;;;;;;;;;4973460;28;20975;-77
2022/04/19 09:14:17;;;;;;;10.07;4.70;;;;;;;;;;4978715;28;20878;-77
2022/04/19 09:16:44;;;;;;;8.50;4.73;;;;;;;;;;4981169;28;20201;-77
2022/04/19 09:19:18;;;;;;;7.73;4.60;;;;;;;;;;4989389;28;20201;-77
2022/04/19 09:21:45;;;;;;;5.73;3.90;;;;;;;;;;4985364;28;20228;-78
2022/04/19 09:24:19;;;;;;;7.73;4.37;;;;;;;;;;4983074;28;20256;-77
2022/04/19 09:26:48;;;;;;;10.13;4.70;;;;;;;;;;4986261;28;20200;-77
2022/04/19 09:29:19;;;;;;;8.17;4.50;;;;;;;;;;4979284;28;20217;-77
2022/04/19 09:31:46;;;;;;;7.23;4.40;;;;;;;;;;4961688;28;20226;-77
2022/04/19 09:34:24;;;;;;;8.63;4.60;;;;;;;;;;4976125;28;20224;-79
2022/04/19 09:36:54;;;;;;;7.87;4.83;;;;;;;;;;4983744;28;20201;-77
2022/04/19 09:39:28;;;;;;;9.93;5.07;;;;;;;;;;4985621;28;20204;-78
2022/04/19 09:42:03;;;;;;;10.83;5.43;;;;;;;;;;4989268;28;20225;-78
2022/04/19 09:44:32;;;;;;;8.00;4.73;;;;;;;;;;4986308;28;20307;-77
2022/04/19 09:47:03;;;;;;;9.23;5.10;;;;;;;;;;4982522;28;20209;-77
2022/04/19 09:49:46;;;;;;;7.57;4.67;;;;;;;;;;4992064;28;20735;-77
2022/04/19 09:52:15;;;;;;;9.37;4.80;;;;;;;;;;4985625;28;20199;-77
2022/04/19 09:54:44;;;;;;;9.90;4.80;;;;;;;;;;4982952;28;20663;-77
2022/04/19 09:57:12;;;;;;;8.23;4.53;;;;;;;;;;4984668;28;20212;-76
2022/04/19 09:59:42;;;;;;;9.77;4.50;;;;;;;;;;4989163;28;21003;-78
2022/04/19 10:10:27;;;;;;;7.77;4.43;;;;;;;;;;4976895;28;20227;-78
2022/04/19 10:12:55;;;;;;;8.47;4.10;;;;;;;;;;4973187;28;20212;-78
2022/04/19 10:15:22;;;;;;;7.30;4.10;;;;;;;;;;4983367;28;20773;-79
2022/04/19 10:17:50;;;;;;;9.07;4.27;;;;;;;;;;4979693;28;20246;-78
2022/04/19 10:20:17;;;;;;;7.50;3.93;;;;;;;;;;4979271;28;20720;-78
2022/04/19 10:22:48;;;;;;;8.07;3.93;;;;;;;;;;4974450;28;20710;-77
2022/04/19 10:25:15;;;;;;;6.17;3.70;;;;;;;;;;4980305;28;20514;-78
2022/04/19 10:27:44;;;;;;;6.43;3.50;;;;;;;;;;4980143;28;20755;-78
2022/04/19 10:30:19;;;;;;;7.63;4.20;;;;;;;;;;4971184;28;20283;-78
2022/04/19 10:32:46;;;;;;;6.23;3.80;;;;;;;;;;4967519;28;20208;-78
2022/04/19 10:35:13;;;;;;;6.27;3.10;;;;;;;;;;4967811;28;20205;-79
2022/04/19 10:37:42;;;;;;;7.03;3.50;;;;;;;;;;4966217;28;20236;-78
2022/04/19 10:40:12;;;;;;;5.30;3.20;;;;;;;;;;4977803;28;20288;-78
2022/04/19 10:42:43;;;;;;;11.60;3.27;;;;;;;;;;4973975;28;20209;-78
2022/04/19 10:45:28;;;;;;;4.83;2.73;;;;;;;;;;4976107;28;21087;-78
2022/04/19 10:48:05;;;;;;;3.77;2.03;;;;;;;;;;4975922;28;20739;-78
2022/04/19 10:50:34;;;;;;;5.53;2.30;;;;;;;;;;4972651;28;20309;-77
2022/04/19 10:53:03;;;;;;;5.13;2.30;;;;;;;;;;4977340;28;20208;-78
2022/04/19 10:55:31;;;;;;;4.47;2.60;;;;;;;;;;4982176;28;20209;-78
2022/04/19 10:58:17;;;;;;;6.60;2.23;;;;;;;;;;4979057;28;21188;-76
2022/04/19 11:01:00;;;;;;;4.50;2.57;;;;;;;;;;4984349;28;20256;-78
2022/04/19 11:03:57;;;;;;;5.77;2.43;;;;;;;;;;4979655;28;20205;-78
2022/04/19 11:06:33;;;;;;;7.73;3.23;;;;;;;;;;4981376;28;20224;-78
2022/04/19 11:09:07;;;;;;;3.77;2.20;;;;;;;;;;4994725;23;20307;-79
2022/04/19 11:11:45;;;;;;;5.47;2.00;;;;;;;;;;4983060;28;20319;-82
2022/04/19 11:14:20;;;;;;;4.60;2.27;;;;;;;;;;4987400;28;20331;-80
2022/04/19 11:16:50;;;;;;;4.60;2.03;;;;;;;;;;4983917;28;20205;-82
2022/04/19 11:19:18;;;;;;;2.53;1.70;;;;;;;;;;4992251;28;20217;-81
2022/04/19 11:21:58;;;;;;;3.37;1.97;;;;;;;;;;4995247;28;20229;-81
2022/04/19 11:24:44;;;;;;;4.63;2.80;;;;;;;;;;4994812;28;20235;-80
2022/04/19 11:27:11;;;;;;;3.93;2.07;;;;;;;;;;4986445;28;20215;-80
2022/04/19 11:29:48;;;;;;;3.93;2.30;;;;;;;;;;4984898;28;20659;-82
2022/04/19 11:32:20;;;;;;;3.10;1.90;;;;;;;;;;4981761;28;20201;-84
2022/04/19 11:34:58;;;;;;;3.13;2.00;;;;;;;;;;4984837;28;20221;-84
2022/04/19 11:37:26;;;;;;;4.80;1.90;;;;;;;;;;4984772;28;20209;-80
2022/04/19 11:48:10;;;;;;;3.03;1.60;;;;;;;;;;4982775;28;20584;-82
2022/04/19 11:50:38;;;;;;;2.43;1.70;;;;;;;;;;4980219;28;20314;-83
2022/04/19 11:53:17;;;;;;;3.47;1.80;;;;;;;;;;4975057;28;20655;-78
2022/04/19 11:55:51;;;;;;;2.20;1.50;;;;;;;;;;4973543;28;20220;-78
2022/04/19 11:58:22;;;;;;;2.33;1.77;;;;;;;;;;4976294;28;20209;-79
2022/04/19 12:00:58;;;;;;;2.33;1.70;;;;;;;;;;4982300;28;20237;-78
2022/04/19 12:03:26;;;;;;;3.47;1.80;;;;;;;;;;4979981;28;20735;-78
2022/04/19 12:05:54;;;;;;;6.23;2.03;;;;;;;;;;4974914;28;20746;-76
2022/04/19 12:08:33;;;;;;;2.80;1.60;;;;;;;;;;4977925;28;20647;-78
2022/04/19 12:11:01;;;;;;;4.77;1.60;;;;;;;;;;4980538;28;20317;-78
2022/04/19 12:13:28;;;;;;;2.93;1.90;;;;;;;;;;4979698;28;20239;-79
2022/04/19 12:15:56;;;;;;;3.53;1.60;;;;;;;;;;4978056;28;20750;-79
2022/04/19 12:18:33;;;;;;;2.27;1.60;;;;;;;;;;4980816;28;20202;-78
2022/04/19 12:21:00;;;;;;;5.10;1.90;;;;;;;;;;4980517;28;20231;-79
2022/04/19 12:23:28;;;;;;;2.50;1.67;;;;;;;;;;4982098;28;20201;-78
2022/04/19 12:26:00;;;;;;;3.57;1.67;;;;;;;;;;4989445;28;20224;-79
2022/04/19 12:28:42;;;;;;;4.17;1.90;;;;;;;;;;4980445;28;20205;-78
2022/04/19 12:31:10;;;;;;;5.07;1.73;;;;;;;;;;4977044;28;20239;-78
2022/04/19 12:33:54;;;;;;;2.23;1.60;;;;;;;;;;4974192;28;20648;-78
2022/04/19 12:36:25;;;;;;;3.00;1.50;;;;;;;;;;4972151;28;20232;-79
2022/04/19 12:38:59;;;;;;;3.07;1.70;;;;;;;;;;4975905;28;20198;-79
2022/04/19 12:41:36;;;;;;;4.63;1.90;;;;;;;;;;4973541;28;20224;-78
2022/04/19 12:44:03;;;;;;;2.27;1.30;;;;;;;;;;4981696;28;20216;-78
2022/04/19 12:46:31;;;;;;;3.50;1.77;;;;;;;;;;4981167;28;20213;-79
2022/04/19 12:48:58;;;;;;;2.40;1.20;;;;;;;;;;4975570;28;20212;-80
2022/04/19 12:51:26;;;;;;;2.03;1.23;;;;;;;;;;4980292;28;20225;-79
2022/04/19 12:54:03;;;;;;;2.83;1.33;;;;;;;;;;4983665;28;20300;-78
2022/04/19 12:56:40;;;;;;;2.57;1.27;;;;;;;;;;4982394;28;20295;-79
2022/04/19 12:59:08;;;;;;;1.87;1.37;;;;;;;;;;4984451;28;20247;-79
2022/04/19 13:01:36;;;;;;;2.00;1.20;;;;;;;;;;4987102;28;20221;-80
2022/04/19 13:04:03;;;;;;;2.40;1.27;;;;;;;;;;4986130;28;20631;-80
2022/04/19 13:12:22;;;;;;;2.00;0.90;;;;;;;;;;4974636;28;20220;-80
2022/04/19 13:14:50;;;;;;;2.13;1.03;;;;;;;;;;4988653;28;20205;-79
2022/04/19 13:17:17;;;;;;;1.63;1.00;;;;;;;;;;4989287;28;20642;-79
2022/04/19 13:19:45;;;;;;;2.33;1.10;;;;;;;;;;4992495;28;20240;-80
2022/04/19 13:22:13;;;;;;;3.20;0.90;;;;;;;;;;4989001;28;20610;-80
2022/04/19 13:24:41;;;;;;;3.20;1.00;;;;;;;;;;4987269;28;20277;-79
2022/04/19 13:27:09;;;;;;;1.43;0.80;;;;;;;;;;4988575;28;20237;-79
2022/04/19 13:29:38;;;;;;;1.63;1.00;;;;;;;;;;4988013;28;20219;-80
2022/04/19 13:32:06;;;;;;;2.80;1.10;;;;;;;;;;4991046;28;20770;-78
2022/04/19 13:34:33;;;;;;;3.00;1.10;;;;;;;;;;4987697;28;20210;-79
2022/04/19 13:37:01;;;;;;;1.60;1.10;;;;;;;;;;4990054;28;20360;-79
2022/04/19 13:39:29;;;;;;;1.47;0.80;;;;;;;;;;4986188;28;20272;-80
2022/04/19 13:41:56;;;;;;;1.03;0.80;;;;;;;;;;4988643;28;20309;-80
2022/04/19 13:44:23;;;;;;;3.73;0.70;;;;;;;;;;4992369;28;20231;-79
2022/04/19 13:46:53;;;;;;;1.97;0.90;;;;;;;;;;4975194;28;20710;-78
2022/04/19 13:49:20;;;;;;;1.33;0.80;;;;;;;;;;4984031;28;20216;-78
2022/04/19 13:51:47;;;;;;;0.93;0.67;;;;;;;;;;4982266;28;20793;-78
2022/04/19 13:54:14;;;;;;;1.80;0.80;;;;;;;;;;4979702;28;20200;-78
2022/04/19 13:56:43;;;;;;;3.27;0.70;;;;;;;;;;4981920;28;20237;-78
2022/04/19 13:59:12;;;;;;;1.00;0.60;;;;;;;;;;4979282;28;20240;-78
2022/04/19 14:01:39;;;;;;;1.30;0.73;;;;;;;;;;4982759;28;20599;-78
2022/04/19 14:04:08;;;;;;;0.73;0.57;;;;;;;;;;4987075;28;20693;-78
2022/04/19 14:06:38;;;;;;;0.80;0.70;;;;;;;;;;4984378;28;20205;-78
2022/04/19 14:09:06;;;;;;;1.27;0.70;;;;;;;;;;4987896;28;20224;-78
2022/04/19 14:11:35;;;;;;;2.73;0.70;;;;;;;;;;4986127;28;20225;-77
2022/04/19 14:14:02;;;;;;;1.77;1.00;;;;;;;;;;4979929;28;20332;-77
2022/04/19 14:16:30;;;;;;;4.00;1.00;;;;;;;;;;4979586;28;20274;-77
2022/04/19 14:18:58;;;;;;;1.60;0.90;;;;;;;;;;4980311;28;20222;-78
2022/04/19 14:21:26;;;;;;;2.20;0.90;;;;;;;;;;4985922;28;20315;-78
2022/04/19 14:23:54;;;;;;;2.53;0.87;;;;;;;;;;4976794;28;20211;-78
2022/04/19 14:26:21;;;;;;;1.07;0.60;;;;;;;;;;4978577;28;20207;-79
2022/04/19 14:34:32;;;;;;;2.83;0.60;;;;;;;;;;4939375;29;20203;-78
2022/04/19 14:37:01;;;;;;;2.03;0.80;;;;;;;;;;4936306;28;20227;-78
2022/04/19 14:39:32;;;;;;;1.57;0.83;;;;;;;;;;4954890;28;21402;-78
2022/04/19 14:42:01;;;;;;;2.40;0.87;;;;;;;;;;4976933;28;20647;-77
2022/04/19 14:44:29;;;;;;;2.17;0.90;;;;;;;;;;4980168;28;20205;-78
2022/04/19 14:46:56;;;;;;;1.83;1.20;;;;;;;;;;4980622;28;20607;-78
2022/04/19 14:49:23;;;;;;;1.43;0.80;;;;;;;;;;4980506;28;20209;-78
2022/04/19 14:54:37;;;;;;;2.10;0.90;;;;;;;;;;4979302;28;20263;-78
2022/04/19 14:57:04;;;;;;;1.53;1.03;;;;;;;;;;4987511;28;20232;-79
2022/04/19 14:59:32;;;;;;;2.50;0.60;;;;;;;;;;4980222;28;20243;-78
2022/04/19 15:02:00;;;;;;;3.17;0.80;;;;;;;;;;4982743;28;20224;-78
2022/04/19 15:04:27;;;;;;;1.00;0.70;;;;;;;;;;4985664;28;20743;-78
2022/04/19 15:06:55;;;;;;;1.53;0.70;;;;;;;;;;4984410;28;20242;-78
2022/04/19 15:09:22;;;;;;;1.00;0.80;;;;;;;;;;4985158;28;20217;-78
2022/04/19 15:11:54;;;;;;;3.23;0.80;;;;;;;;;;4980944;28;20829;-78
2022/04/19 15:14:23;;;;;;;2.97;1.03;;;;;;;;;;4975081;28;20216;-79
2022/04/19 15:16:50;;;;;;;1.03;0.77;;;;;;;;;;4982022;28;20232;-78
2022/04/19 15:19:18;;;;;;;1.40;0.90;;;;;;;;;;4983782;28;20299;-78
2022/04/19 15:21:45;;;;;;;3.57;1.20;;;;;;;;;;4983927;28;20269;-78
2022/04/19 15:24:12;;;;;;;4.30;1.00;;;;;;;;;;4977650;28;20216;-78
2022/04/19 15:26:40;;;;;;;1.67;0.83;;;;;;;;;;4976331;28;20205;-78
2022/04/19 15:29:10;;;;;;;2.43;0.90;;;;;;;;;;4981546;28;20209;-78
2022/04/19 15:31:40;;;;;;;1.40;0.90;;;;;;;;;;4985083;28;20233;-77
2022/04/19 15:34:08;;;;;;;1.00;0.60;;;;;;;;;;4981711;28;20850;-77
2022/04/19 15:36:35;;;;;;;2.73;0.90;;;;;;;;;;4973605;28;20291;-78
2022/04/19 15:39:04;;;;;;;2.50;1.00;;;;;;;;;;4976800;28;20210;-78
2022/04/19 15:41:31;;;;;;;2.13;1.00;;;;;;;;;;4976456;28;20231;-78
2022/04/19 15:43:58;;;;;;;1.73;0.83;;;;;;;;;;4980470;28;20480;-78
2022/04/19 15:46:26;;;;;;;1.10;0.70;;;;;;;;;;4980099;28;20256;-79
2022/04/19 15:48:54;;;;;;;1.83;0.77;;;;;;;;;;4981381;28;20201;-78
2022/04/19 15:51:21;;;;;;;2.50;0.90;;;;;;;;;;4990367;23;20328;-79
2022/04/19 15:53:48;;;;;;;1.47;0.60;;;;;;;;;;4987815;28;20244;-77
2022/04/19 15:56:18;;;;;;;3.37;0.60;;;;;;;;;;4981052;28;20814;-79
2022/04/19 15:58:45;;;;;;;2.80;0.60;;;;;;;;;;4980928;28;20212;-78
2022/04/19 16:01:14;;;;;;;1.37;0.63;;;;;;;;;;4986551;28;20225;-79
2022/04/19 16:03:43;;;;;;;0.73;0.50;;;;;;;;;;4984873;28;20220;-80
2022/04/19 16:06:11;;;;;;;1.90;0.40;;;;;;;;;;4986563;28;20739;-79
2022/04/19 16:08:39;;;;;;;1.97;0.50;;;;;;;;;;4986444;28;20209;-78
2022/04/19 16:11:07;;;;;;;0.37;0.30;;;;;;;;;;4986282;28;20284;-78
2022/04/19 16:13:35;;;;;;;1.10;0.60;;;;;;;;;;4991463;28;20277;-78
2022/04/19 16:24:14;;;;;;;1.47;0.70;;;;;;;;;;4988645;28;20219;-78